createdAt,value
2022-08-17T00:00:34.569Z,74.87
2022-08-17T00:02:30.636Z,75.56
2022-08-17T00:04:35.629Z,75.57
2022-08-17T00:06:35.663Z,75.39
2022-08-17T00:08:37.465Z,76.25
2022-08-17T00:10:36.061Z,76.19
2022-08-17T00:12:51.540Z,75.75
2022-08-17T00:14:50.449Z,75.38
2022-08-17T00:16:56.822Z,75.27
2022-08-17T00:19:06.167Z,75.56
2022-08-17T00:21:10.374Z,75.61
2022-08-17T00:23:13.177Z,75.95
2022-08-17T00:25:16.333Z,76.24
2022-08-17T00:27:14.722Z,77.57
2022-08-17T00:29:19.334Z,77.07
2022-08-17T00:31:18.333Z,75.84
2022-08-17T00:33:19.310Z,75.68
2022-08-17T00:35:23.352Z,75.75
2022-08-17T00:37:22.763Z,76.13
2022-08-17T00:39:20.882Z,77.41
2022-08-17T00:41:24.295Z,78.36
2022-08-17T00:43:27.596Z,79.86
2022-08-17T00:45:25.866Z,80.30
2022-08-17T00:47:24.115Z,79.83
2022-08-17T00:49:23.707Z,80.82
2022-08-17T00:51:30.430Z,80.48
2022-08-17T00:53:32.924Z,79.32
2022-08-17T00:55:31.162Z,79.05
2022-08-17T00:57:34.169Z,78.84
2022-08-17T00:59:38.419Z,78.69
2022-08-17T01:01:38.531Z,79.33
2022-08-17T01:03:39.903Z,79.90
2022-08-17T01:05:42.527Z,81.29
2022-08-17T01:07:41.343Z,82.35
2022-08-17T01:09:41.693Z,82.09
2022-08-17T01:11:40.678Z,81.71
2022-08-17T01:13:44.412Z,80.72
2022-08-17T01:15:47.602Z,79.63
2022-08-17T01:17:47.192Z,79.54
2022-08-17T01:19:45.686Z,79.28
2022-08-17T01:21:51.632Z,79.26
2022-08-17T01:23:51.334Z,79.90
2022-08-17T01:25:51.435Z,80.60
2022-08-17T01:27:50.371Z,80.97
2022-08-17T01:29:52.151Z,81.15
2022-08-17T01:31:54.624Z,81.46
2022-08-17T01:33:53.451Z,81.64
2022-08-17T01:35:51.921Z,82.44
2022-08-17T01:37:50.424Z,82.89
2022-08-17T01:39:54.959Z,82.71
2022-08-17T01:41:57.599Z,82.75
2022-08-17T01:44:01.142Z,82.70
2022-08-17T01:46:03.856Z,82.46
2022-08-17T01:48:02.476Z,82.38
2022-08-17T01:50:07.630Z,83.73
2022-08-17T01:52:08.868Z,84.93
2022-08-17T01:54:11.317Z,84.50
2022-08-17T01:56:13.683Z,83.65
2022-08-17T01:58:12.550Z,82.87
2022-08-17T02:00:11.680Z,82.46
2022-08-17T02:02:10.334Z,82.17
2022-08-17T02:04:09.563Z,81.66
2022-08-17T02:06:27.064Z,81.56
2022-08-17T02:08:39.164Z,81.38
2022-08-17T02:10:46.689Z,82.18
2022-08-17T02:12:46.489Z,82.76
2022-08-17T02:14:44.873Z,82.88
2022-08-17T02:16:43.643Z,83.00
2022-08-17T02:18:42.209Z,82.53
2022-08-17T02:20:42.947Z,81.42
2022-08-17T02:22:45.535Z,81.71
2022-08-17T02:24:59.608Z,81.58
2022-08-17T02:26:59.648Z,81.09
2022-08-17T02:28:59.262Z,81.52
2022-08-17T02:31:01.463Z,81.92
2022-08-17T02:33:04.039Z,81.53
2022-08-17T02:35:06.062Z,82.38
2022-08-17T02:37:04.378Z,84.23
2022-08-17T02:39:03.403Z,83.72
2022-08-17T02:41:01.854Z,83.41
2022-08-17T02:43:00.271Z,84.02
2022-08-17T02:45:03.422Z,83.35
2022-08-17T02:47:01.987Z,83.64
2022-08-17T02:49:00.608Z,83.70
2022-08-17T02:50:58.717Z,83.74
2022-08-17T02:53:01.856Z,83.82
2022-08-17T02:55:00.994Z,84.34
2022-08-17T02:56:59.265Z,84.94
2022-08-17T02:58:57.513Z,85.55
2022-08-17T03:00:57.141Z,85.05
2022-08-17T03:02:57.271Z,84.96
2022-08-17T03:04:55.604Z,84.88
2022-08-17T03:06:53.901Z,84.25
2022-08-17T03:08:52.494Z,83.79
2022-08-17T03:10:51.347Z,83.90
2022-08-17T03:12:50.420Z,84.25
2022-08-17T03:14:49.055Z,84.46
2022-08-17T03:16:48.688Z,84.85
2022-08-17T03:18:46.928Z,85.07
2022-08-17T03:20:45.415Z,85.82
2022-08-17T03:22:52.996Z,86.86
2022-08-17T03:24:52.009Z,88.21
2022-08-17T03:26:51.610Z,88.14
2022-08-17T03:28:49.777Z,87.11
2022-08-17T03:30:48.135Z,86.75
2022-08-17T03:32:50.868Z,86.56
2022-08-17T03:34:49.149Z,85.60
2022-08-17T03:36:47.462Z,85.86
2022-08-17T03:38:45.644Z,86.04
2022-08-17T03:40:57.225Z,85.77
2022-08-17T03:42:58.013Z,86.99
2022-08-17T03:44:58.443Z,86.40
2022-08-17T03:47:14.124Z,85.13
2022-08-17T03:49:31.155Z,84.61
2022-08-17T03:51:46.767Z,85.18
2022-08-17T03:54:07.700Z,85.37
2022-08-17T03:56:24.156Z,84.38
2022-08-17T03:58:22.776Z,83.17
2022-08-17T04:00:21.222Z,81.39
2022-08-17T04:02:24.899Z,79.29
2022-08-17T04:04:27.628Z,78.35
2022-08-17T04:06:26.092Z,76.96
2022-08-17T04:08:24.424Z,75.09
2022-08-17T04:10:26.398Z,74.10
2022-08-17T04:12:25.848Z,73.00
2022-08-17T04:14:24.507Z,72.16
2022-08-17T04:16:22.814Z,71.09
2022-08-17T04:18:21.219Z,70.51
2022-08-17T04:20:22.494Z,70.25
2022-08-17T04:22:32.204Z,69.69
2022-08-17T04:24:32.115Z,67.59
2022-08-17T04:26:54.209Z,67.72
2022-08-17T04:28:48.954Z,66.71
2022-08-17T04:30:48.567Z,65.77
2022-08-17T04:33:04.697Z,65.78
2022-08-17T04:35:05.839Z,64.86
2022-08-17T04:37:05.798Z,61.77
2022-08-17T04:39:04.125Z,60.06
2022-08-17T04:41:20.829Z,58.62
2022-08-17T04:43:21.747Z,58.15
2022-08-17T04:45:19.993Z,58.01
2022-08-17T04:47:20.737Z,55.66
2022-08-17T04:49:18.964Z,54.26
2022-08-17T04:51:19.323Z,53.94
2022-08-17T04:53:21.764Z,52.33
2022-08-17T04:55:20.137Z,52.12
2022-08-17T04:57:18.442Z,51.86
2022-08-17T04:59:19.061Z,53.35
2022-08-17T05:01:23.062Z,52.65
2022-08-17T05:03:22.462Z,52.38
2022-08-17T05:05:20.949Z,52.29
2022-08-17T05:07:23.444Z,53.52
2022-08-17T05:09:24.539Z,53.28
2022-08-17T05:11:23.527Z,54.90
2022-08-17T05:13:26.973Z,55.82
2022-08-17T05:15:25.339Z,57.31
2022-08-17T05:17:23.543Z,58.09
2022-08-17T05:19:21.881Z,57.06
2022-08-17T05:21:22.962Z,56.50
2022-08-17T05:23:23.088Z,56.12
2022-08-17T05:25:25.731Z,55.08
2022-08-17T05:27:24.174Z,55.73
2022-08-17T05:29:35.605Z,55.43
2022-08-17T05:31:34.031Z,55.44
2022-08-17T05:33:44.318Z,55.59
2022-08-17T05:35:47.220Z,54.49
2022-08-17T05:37:45.604Z,54.81
2022-08-17T05:39:43.829Z,56.21
2022-08-17T05:41:43.397Z,55.30
2022-08-17T05:43:43.471Z,55.01
2022-08-17T05:45:55.932Z,56.30
2022-08-17T05:47:54.635Z,55.84
2022-08-17T05:49:53.845Z,56.51
2022-08-17T05:52:20.041Z,56.59
2022-08-17T05:54:30.225Z,55.45
2022-08-17T05:56:48.022Z,56.24
2022-08-17T05:59:00.311Z,56.53
2022-08-17T06:01:04.126Z,56.02
2022-08-17T06:03:23.641Z,55.99
2022-08-17T06:05:39.980Z,56.96
2022-08-17T06:07:47.015Z,54.75
2022-08-17T06:09:54.716Z,55.98
2022-08-17T06:11:58.779Z,55.89
2022-08-17T06:14:20.878Z,55.83
2022-08-17T06:16:26.000Z,54.18
2022-08-17T06:18:49.347Z,54.11
2022-08-17T06:20:52.111Z,54.04
2022-08-17T06:22:53.064Z,54.82
2022-08-17T06:24:56.798Z,54.51
2022-08-17T06:26:56.515Z,52.55
2022-08-17T06:28:59.721Z,51.10
2022-08-17T06:31:14.132Z,49.86
2022-08-17T06:33:20.695Z,49.63
2022-08-17T06:35:31.797Z,49.88
2022-08-17T06:37:53.979Z,50.82
2022-08-17T06:40:02.894Z,52.47
2022-08-17T06:43:02.206Z,51.27
2022-08-17T06:44:50.796Z,52.12
2022-08-17T06:46:58.764Z,52.93
2022-08-17T06:49:08.003Z,52.07
2022-08-17T06:51:15.232Z,51.78
2022-08-17T06:53:22.472Z,52.45
2022-08-17T06:55:24.723Z,51.32
2022-08-17T06:57:28.527Z,50.08
2022-08-17T06:59:54.607Z,49.57
2022-08-17T07:01:56.606Z,49.98
2022-08-17T07:04:00.186Z,49.86
2022-08-17T07:06:15.735Z,48.28
2022-08-17T07:08:21.048Z,46.51
2022-08-17T07:10:21.961Z,46.52
2022-08-17T07:12:23.818Z,46.34
2022-08-17T07:14:33.741Z,47.33
2022-08-17T07:16:38.946Z,48.80
2022-08-17T07:18:38.714Z,51.18
2022-08-17T07:20:42.854Z,49.06
2022-08-17T07:22:59.318Z,47.30
2022-08-17T07:25:01.829Z,46.89
2022-08-17T07:27:12.683Z,46.99
2022-08-17T07:29:15.439Z,47.41
2022-08-17T07:31:17.216Z,48.77
2022-08-17T07:33:20.247Z,48.17
2022-08-17T07:35:23.335Z,47.32
2022-08-17T07:37:33.357Z,46.78
2022-08-17T07:39:31.663Z,48.20
2022-08-17T07:41:57.967Z,47.34
2022-08-17T07:43:53.018Z,46.30
2022-08-17T07:46:22.252Z,46.29
2022-08-17T07:48:22.819Z,44.99
2022-08-17T07:50:29.090Z,43.32
2022-08-17T07:52:50.672Z,42.10
2022-08-17T07:54:50.613Z,41.63
2022-08-17T07:56:50.936Z,41.09
2022-08-17T07:58:49.164Z,41.26
2022-08-17T08:00:47.911Z,42.86
2022-08-17T08:03:00.755Z,43.14
2022-08-17T08:05:03.118Z,42.58
2022-08-17T08:07:12.111Z,42.41
2022-08-17T08:09:28.744Z,42.91
2022-08-17T08:11:31.820Z,43.61
2022-08-17T08:13:32.449Z,44.46
2022-08-17T08:15:36.863Z,42.43
2022-08-17T08:17:37.035Z,42.17
2022-08-17T08:19:35.584Z,40.06
2022-08-17T08:21:41.884Z,39.74
2022-08-17T08:23:50.310Z,40.16
2022-08-17T08:25:59.566Z,40.78
2022-08-17T08:28:16.238Z,39.73
2022-08-17T08:30:19.589Z,39.56
2022-08-17T08:32:22.114Z,41.50
2022-08-17T08:34:44.988Z,41.39
2022-08-17T08:37:17.757Z,41.97
2022-08-17T08:39:24.713Z,41.49
2022-08-17T08:41:38.451Z,40.09
2022-08-17T08:43:39.281Z,38.99
2022-08-17T08:45:46.938Z,36.94
2022-08-17T08:48:22.924Z,35.18
2022-08-17T08:50:37.949Z,32.54
2022-08-17T08:53:05.038Z,31.56
2022-08-17T08:55:13.477Z,29.22
2022-08-17T08:57:32.797Z,28.97
2022-08-17T08:59:44.262Z,27.65
2022-08-17T09:01:52.482Z,27.92
2022-08-17T09:04:28.793Z,26.71
2022-08-17T09:06:45.154Z,26.75
2022-08-17T09:09:03.369Z,26.10
2022-08-17T09:11:11.730Z,25.74
2022-08-17T09:13:20.950Z,26.51
2022-08-17T09:15:25.758Z,26.39
2022-08-17T09:17:36.365Z,26.77
2022-08-17T09:19:43.067Z,26.96
2022-08-17T09:21:48.360Z,27.02
2022-08-17T09:23:59.949Z,25.99
2022-08-17T09:26:03.689Z,24.86
2022-08-17T09:28:07.818Z,25.07
2022-08-17T09:30:12.209Z,25.61
2022-08-17T09:32:18.767Z,25.01
2022-08-17T09:34:33.047Z,24.75
2022-08-17T09:36:38.713Z,24.99
2022-08-17T09:38:44.545Z,26.39
2022-08-17T09:40:51.768Z,26.54
2022-08-17T09:42:53.565Z,26.86
2022-08-17T09:45:04.096Z,24.93
2022-08-17T09:47:11.159Z,25.92
2022-08-17T09:49:15.120Z,25.35
2022-08-17T09:51:19.618Z,25.45
2022-08-17T09:53:17.798Z,25.53
2022-08-17T09:55:16.204Z,24.73
2022-08-17T09:57:35.617Z,24.38
2022-08-17T09:59:52.109Z,24.37
2022-08-17T10:02:02.057Z,24.16
2022-08-17T10:04:29.335Z,24.15
2022-08-17T10:06:33.746Z,25.05
2022-08-17T10:08:41.889Z,23.42
2022-08-17T10:10:52.495Z,23.45
2022-08-17T10:13:05.366Z,22.77
2022-08-17T10:15:24.768Z,24.13
2022-08-17T10:17:29.430Z,23.52
2022-08-17T10:19:35.732Z,23.97
2022-08-17T10:22:00.580Z,23.03
2022-08-17T10:24:26.111Z,24.17
2022-08-17T10:26:27.399Z,24.14
2022-08-17T10:28:47.226Z,23.84
2022-08-17T10:30:51.487Z,23.73
2022-08-17T10:32:56.205Z,24.58
2022-08-17T10:35:14.678Z,22.94
2022-08-17T10:37:38.366Z,23.03
2022-08-17T10:39:52.043Z,23.80
2022-08-17T10:41:56.432Z,23.79
2022-08-17T10:44:38.164Z,23.55
2022-08-17T10:46:31.102Z,23.46
2022-08-17T10:48:36.598Z,23.80
2022-08-17T10:50:49.768Z,23.87
2022-08-17T10:52:52.260Z,25.99
2022-08-17T10:55:06.345Z,26.26
2022-08-17T10:57:24.689Z,28.26
2022-08-17T10:59:50.484Z,28.71
2022-08-17T11:02:15.407Z,29.97
2022-08-17T11:04:32.653Z,29.14
2022-08-17T11:06:41.976Z,30.06
2022-08-17T11:09:19.996Z,30.50
2022-08-17T11:11:45.554Z,31.73
2022-08-17T11:13:53.288Z,31.98
2022-08-17T11:16:07.789Z,30.71
2022-08-17T11:18:22.380Z,31.44
2022-08-17T11:20:41.421Z,31.93
2022-08-17T11:23:10.976Z,31.99
2022-08-17T11:25:16.803Z,31.18
2022-08-17T11:27:26.064Z,32.31
2022-08-17T11:29:28.027Z,34.04
2022-08-17T11:31:37.899Z,33.90
2022-08-17T11:33:57.883Z,34.20
2022-08-17T11:36:07.754Z,34.13
2022-08-17T11:38:21.143Z,34.83
2022-08-17T11:40:47.584Z,34.66
2022-08-17T11:43:04.624Z,35.32
2022-08-17T11:45:32.557Z,36.33
2022-08-17T11:48:26.562Z,39.46
2022-08-17T11:50:51.441Z,40.53
2022-08-17T11:52:51.935Z,40.24
2022-08-17T11:54:51.004Z,40.83
2022-08-17T11:56:51.950Z,40.58
2022-08-17T11:58:50.149Z,40.54
2022-08-17T12:00:52.592Z,40.37
2022-08-17T12:03:28.670Z,39.66
2022-08-17T12:05:34.154Z,39.42
2022-08-17T12:07:34.485Z,38.60
2022-08-17T12:09:39.405Z,38.74
2022-08-17T12:11:58.767Z,40.73
2022-08-17T12:14:02.759Z,41.41
2022-08-17T12:16:01.627Z,40.97
2022-08-17T12:18:00.294Z,41.76
2022-08-17T12:20:12.578Z,41.29
2022-08-17T12:22:18.929Z,41.18
2022-08-17T12:24:31.525Z,40.10
2022-08-17T12:26:35.470Z,39.01
2022-08-17T12:28:40.309Z,40.14
2022-08-17T12:30:39.162Z,37.95
2022-08-17T12:32:40.743Z,34.90
2022-08-17T12:34:44.524Z,35.57
2022-08-17T12:36:42.988Z,35.97
2022-08-17T12:38:42.127Z,35.48
2022-08-17T12:40:40.551Z,35.36
2022-08-17T12:42:41.687Z,34.18
2022-08-17T12:44:50.415Z,33.82
2022-08-17T12:46:54.556Z,35.44
2022-08-17T12:48:59.280Z,37.03
2022-08-17T12:51:02.202Z,37.44
2022-08-17T12:53:02.704Z,37.97
2022-08-17T12:55:02.841Z,37.93
2022-08-17T12:57:07.227Z,38.35
2022-08-17T12:59:12.341Z,37.43
2022-08-17T13:01:18.040Z,37.27
2022-08-17T13:03:19.396Z,37.39
2022-08-17T13:05:23.034Z,36.63
2022-08-17T13:07:33.387Z,38.09
2022-08-17T13:09:40.154Z,37.63
2022-08-17T13:11:48.945Z,37.53
2022-08-17T13:13:50.951Z,37.01
2022-08-17T13:15:56.651Z,36.98
2022-08-17T13:18:01.267Z,37.04
2022-08-17T13:20:00.025Z,36.95
2022-08-17T13:22:04.244Z,37.17
2022-08-17T13:24:05.096Z,36.66
2022-08-17T13:26:08.008Z,36.46
2022-08-17T13:28:06.323Z,36.45
2022-08-17T13:30:11.775Z,36.11
2022-08-17T13:32:23.035Z,35.78
2022-08-17T13:34:44.541Z,35.79
2022-08-17T13:37:35.227Z,35.80
2022-08-17T13:39:43.212Z,36.63
2022-08-17T13:41:41.483Z,36.85
2022-08-17T13:43:50.745Z,37.61
2022-08-17T13:45:52.329Z,37.96
2022-08-17T13:48:41.317Z,37.63
2022-08-17T13:50:43.744Z,38.00
2022-08-17T13:52:48.786Z,38.06
2022-08-17T13:54:53.240Z,38.18
2022-08-17T13:57:01.057Z,38.85
2022-08-17T13:59:03.548Z,38.66
2022-08-17T14:01:29.274Z,39.77
2022-08-17T14:03:30.644Z,38.28
2022-08-17T14:05:29.642Z,38.10
2022-08-17T14:07:36.626Z,37.12
2022-08-17T14:09:37.700Z,37.57
2022-08-17T14:11:36.899Z,36.43
2022-08-17T14:13:35.602Z,37.70
2022-08-17T14:15:55.792Z,38.42
2022-08-17T14:17:57.833Z,39.27
2022-08-17T14:19:57.568Z,38.04
2022-08-17T14:21:56.590Z,38.20
2022-08-17T14:23:56.422Z,37.86
2022-08-17T14:25:55.152Z,37.69
2022-08-17T14:27:54.197Z,37.63
2022-08-17T14:29:53.370Z,37.54
2022-08-17T14:31:54.124Z,37.88
2022-08-17T14:33:53.182Z,37.47
2022-08-17T14:35:53.657Z,38.34
2022-08-17T14:37:53.113Z,36.86
2022-08-17T14:39:55.916Z,36.60
2022-08-17T14:41:54.403Z,36.13
2022-08-17T14:43:53.505Z,37.13
2022-08-17T14:45:52.017Z,36.94
2022-08-17T14:47:50.409Z,37.27
2022-08-17T14:49:49.417Z,37.15
2022-08-17T14:51:48.512Z,37.43
2022-08-17T14:53:46.982Z,37.91
2022-08-17T14:55:47.423Z,37.86
2022-08-17T14:57:47.085Z,38.35
2022-08-17T14:59:45.583Z,37.37
2022-08-17T15:01:44.309Z,37.64
2022-08-17T15:03:43.499Z,37.48
2022-08-17T15:05:44.313Z,38.30
2022-08-17T15:07:42.456Z,38.00
2022-08-17T15:09:40.746Z,37.95
2022-08-17T15:11:40.799Z,37.72
2022-08-17T15:13:52.555Z,38.35
2022-08-17T15:15:52.824Z,38.65
2022-08-17T15:17:51.735Z,38.81
2022-08-17T15:19:50.607Z,38.66
2022-08-17T15:21:48.881Z,38.66
2022-08-17T15:23:47.856Z,38.80
2022-08-17T15:25:47.770Z,39.03
2022-08-17T15:27:47.688Z,38.81
2022-08-17T15:29:46.124Z,38.65
2022-08-17T15:31:44.728Z,38.86
2022-08-17T15:33:43.071Z,38.72
2022-08-17T15:35:42.864Z,39.11
2022-08-17T15:37:42.117Z,39.34
2022-08-17T15:39:40.395Z,38.59
2022-08-17T15:41:38.645Z,38.53
2022-08-17T15:43:38.341Z,38.99
2022-08-17T15:45:36.767Z,39.23
2022-08-17T15:47:35.030Z,39.39
2022-08-17T15:49:33.530Z,39.43
2022-08-17T15:51:34.411Z,39.50
2022-08-17T15:53:32.717Z,39.40
2022-08-17T15:55:32.758Z,38.36
2022-08-17T15:57:31.024Z,38.75
2022-08-17T15:59:31.113Z,38.64
2022-08-17T16:03:15.344Z,37.76
2022-08-17T16:04:04.213Z,36.45
2022-08-17T16:06:07.894Z,35.46
2022-08-17T16:08:08.155Z,36.04
2022-08-17T16:10:07.906Z,37.08
2022-08-17T16:12:14.034Z,36.59
2022-08-17T16:14:12.213Z,36.09
2022-08-17T16:16:14.928Z,35.87
2022-08-17T16:18:19.039Z,37.17
2022-08-17T16:20:20.439Z,36.81
2022-08-17T16:22:29.821Z,36.55
2022-08-17T16:24:28.425Z,35.88
2022-08-17T16:26:26.966Z,37.06
2022-08-17T16:28:35.589Z,36.57
2022-08-17T16:30:34.873Z,36.02
2022-08-17T16:32:37.732Z,37.23
2022-08-17T16:34:35.951Z,36.64
2022-08-17T16:36:34.547Z,37.33
2022-08-17T16:38:34.175Z,38.98
2022-08-17T16:40:35.700Z,36.77
2022-08-17T16:42:37.071Z,37.25
2022-08-17T16:44:35.996Z,38.19
2022-08-17T16:46:34.325Z,37.38
2022-08-17T16:48:34.198Z,40.02
2022-08-17T16:50:33.901Z,38.37
2022-08-17T16:52:33.563Z,38.06
2022-08-17T16:54:32.038Z,38.50
2022-08-17T16:56:34.929Z,38.80
2022-08-17T16:58:33.256Z,39.29
2022-08-17T17:00:33.186Z,39.00
2022-08-17T17:02:33.914Z,38.65
2022-08-17T17:04:38.063Z,39.71
2022-08-17T17:06:43.854Z,39.76
2022-08-17T17:08:48.478Z,39.93
2022-08-17T17:10:50.191Z,40.20
2022-08-17T17:13:02.427Z,40.02
2022-08-17T17:15:02.770Z,39.59
2022-08-17T17:17:06.512Z,39.70
2022-08-17T17:19:11.229Z,40.93
2022-08-17T17:21:15.692Z,40.51
2022-08-17T17:23:30.090Z,40.20
2022-08-17T17:25:31.996Z,40.72
2022-08-17T17:27:38.259Z,41.79
2022-08-17T17:29:47.438Z,41.62
2022-08-17T17:32:07.575Z,41.42
2022-08-17T17:34:08.859Z,41.90
2022-08-17T17:36:14.299Z,42.13
2022-08-17T17:38:20.122Z,42.76
2022-08-17T17:40:23.197Z,42.90
2022-08-17T17:42:24.906Z,42.71
2022-08-17T17:44:28.827Z,43.51
2022-08-17T17:46:33.573Z,43.54
2022-08-17T17:48:31.992Z,43.81
2022-08-17T17:50:35.783Z,44.16
2022-08-17T17:52:40.751Z,44.22
2022-08-17T17:54:57.886Z,44.59
2022-08-17T17:57:05.843Z,44.54
2022-08-17T17:59:13.451Z,44.92
2022-08-17T18:01:21.117Z,45.10
2022-08-17T18:03:32.252Z,44.93
2022-08-17T18:06:05.224Z,45.03
2022-08-17T18:08:16.603Z,45.91
2022-08-17T18:10:30.141Z,45.55
2022-08-17T18:12:39.807Z,45.76
2022-08-17T18:15:04.215Z,46.17
2022-08-17T18:17:02.490Z,46.50
2022-08-17T18:19:01.905Z,47.02
2022-08-17T18:21:07.625Z,47.34
2022-08-17T18:23:06.094Z,47.94
2022-08-17T18:25:43.577Z,47.11
2022-08-17T18:27:51.929Z,47.44
2022-08-17T18:29:52.828Z,47.30
2022-08-17T18:32:16.202Z,48.15
2022-08-17T18:34:45.982Z,48.37
2022-08-17T18:36:43.476Z,48.06
2022-08-17T18:38:43.864Z,48.36
2022-08-17T18:40:43.865Z,48.27
2022-08-17T18:42:42.755Z,48.11
2022-08-17T18:44:45.209Z,47.75
2022-08-17T18:46:43.583Z,48.03
2022-08-17T18:48:53.639Z,48.22
2022-08-17T18:51:00.620Z,48.31
2022-08-17T18:53:20.838Z,48.53
2022-08-17T18:55:28.512Z,48.55
2022-08-17T18:57:32.690Z,48.87
2022-08-17T18:59:39.015Z,49.26
2022-08-17T19:01:54.513Z,49.29
2022-08-17T19:03:53.718Z,49.69
2022-08-17T19:05:54.822Z,49.84
2022-08-17T19:07:53.317Z,50.18
2022-08-17T19:09:57.041Z,50.25
2022-08-17T19:11:55.445Z,50.76
2022-08-17T19:14:01.585Z,50.51
2022-08-17T19:16:14.642Z,51.07
2022-08-17T19:18:19.758Z,50.72
2022-08-17T19:20:22.887Z,50.94
2022-08-17T19:22:28.619Z,51.37
2022-08-17T19:24:32.760Z,51.61
2022-08-17T19:26:53.586Z,52.26
2022-08-17T19:29:00.862Z,52.27
2022-08-17T19:31:04.228Z,52.72
2022-08-17T19:33:03.601Z,52.81
2022-08-17T19:35:03.024Z,52.71
2022-08-17T19:37:07.114Z,53.35
2022-08-17T19:39:12.257Z,53.95
2022-08-17T19:41:20.572Z,53.45
2022-08-17T19:43:27.899Z,53.35
2022-08-17T19:45:40.078Z,53.22
2022-08-17T19:48:04.987Z,53.23
2022-08-17T19:50:09.853Z,53.49
2022-08-17T19:52:40.628Z,53.78
2022-08-17T19:54:47.393Z,53.76
2022-08-17T19:56:56.720Z,54.54
2022-08-17T19:59:10.574Z,54.57
2022-08-17T20:01:13.138Z,55.00
2022-08-17T20:03:16.903Z,55.14
2022-08-17T20:05:21.603Z,55.57
2022-08-17T20:07:23.498Z,54.82
2022-08-17T20:09:35.564Z,55.04
2022-08-17T20:11:41.428Z,54.65
2022-08-17T20:13:46.659Z,54.75
2022-08-17T20:15:45.884Z,55.33
2022-08-17T20:17:48.263Z,55.66
2022-08-17T20:19:53.394Z,55.61
2022-08-17T20:22:00.042Z,55.71
2022-08-17T20:24:06.496Z,55.60
2022-08-17T20:26:18.507Z,55.20
2022-08-17T20:28:23.540Z,55.47
2022-08-17T20:30:38.455Z,55.37
2022-08-17T20:32:50.297Z,55.42
2022-08-17T20:34:50.115Z,55.42
2022-08-17T20:37:00.882Z,55.44
2022-08-17T20:39:01.204Z,55.54
2022-08-17T20:41:20.879Z,55.49
2022-08-17T20:43:52.260Z,57.43
2022-08-17T20:46:12.796Z,56.98
2022-08-17T20:48:37.361Z,56.75
2022-08-17T20:50:43.521Z,56.83
2022-08-17T20:52:51.480Z,56.87
2022-08-17T20:54:52.754Z,56.66
2022-08-17T20:56:57.372Z,56.65
2022-08-17T20:58:56.529Z,56.86
2022-08-17T21:01:20.323Z,56.77
2022-08-17T21:04:01.374Z,57.08
2022-08-17T21:06:16.829Z,57.04
2022-08-17T21:08:18.374Z,57.05
2022-08-17T21:10:20.115Z,57.11
2022-08-17T21:12:42.549Z,57.50
2022-08-17T21:14:59.845Z,57.38
2022-08-17T21:17:17.575Z,57.75
2022-08-17T21:19:44.412Z,58.05
2022-08-17T21:22:07.490Z,58.17
2022-08-17T21:24:20.435Z,58.16
2022-08-17T21:26:31.185Z,58.59
2022-08-17T21:29:00.242Z,57.88
2022-08-17T21:31:02.610Z,58.23
2022-08-17T21:33:20.078Z,58.46
2022-08-17T21:35:47.368Z,58.64
2022-08-17T21:37:48.963Z,58.36
2022-08-17T21:39:51.915Z,58.63
2022-08-17T21:41:53.952Z,59.19
2022-08-17T21:43:56.777Z,59.74
2022-08-17T21:45:58.247Z,59.72
2022-08-17T21:48:14.225Z,60.16
2022-08-17T21:50:19.422Z,60.02
2022-08-17T21:52:21.331Z,60.39
2022-08-17T21:54:31.898Z,60.23
2022-08-17T21:56:32.724Z,60.96
2022-08-17T21:58:34.912Z,61.18
2022-08-17T22:00:34.222Z,61.18
2022-08-17T22:02:35.189Z,61.98
2022-08-17T22:04:35.640Z,62.21
2022-08-17T22:06:39.789Z,62.48
2022-08-17T22:08:38.222Z,62.51
2022-08-17T22:10:40.918Z,62.74
2022-08-17T22:12:42.732Z,62.33
2022-08-17T22:14:52.576Z,62.52
2022-08-17T22:17:08.313Z,62.40
2022-08-17T22:19:06.740Z,62.79
2022-08-17T22:21:07.257Z,63.10
2022-08-17T22:23:31.137Z,63.25
2022-08-17T22:25:31.175Z,62.80
2022-08-17T22:27:56.487Z,63.71
2022-08-17T22:29:58.140Z,64.27
2022-08-17T22:31:57.628Z,64.48
2022-08-17T22:34:11.150Z,63.77
2022-08-17T22:36:12.517Z,64.33
2022-08-17T22:38:33.436Z,64.45
2022-08-17T22:40:33.808Z,64.71
2022-08-17T22:42:32.997Z,65.08
2022-08-17T22:44:35.647Z,65.61
2022-08-17T22:46:39.755Z,65.50
2022-08-17T22:48:39.046Z,65.64
2022-08-17T22:50:37.523Z,65.66
2022-08-17T22:52:59.546Z,65.07
2022-08-17T22:55:36.545Z,64.99
2022-08-17T22:58:08.193Z,64.92
2022-08-17T23:00:29.542Z,65.28
2022-08-17T23:02:29.505Z,66.38
2022-08-17T23:04:34.238Z,65.67
2022-08-17T23:06:33.989Z,65.77
2022-08-17T23:08:35.542Z,65.72
2022-08-17T23:10:36.012Z,66.16
2022-08-17T23:12:38.220Z,66.35
2022-08-17T23:14:45.414Z,66.74
2022-08-17T23:16:49.351Z,67.06
2022-08-17T23:18:48.014Z,67.41
2022-08-17T23:20:46.863Z,67.52
2022-08-17T23:22:51.747Z,68.14
2022-08-17T23:24:50.875Z,67.87
2022-08-17T23:26:49.149Z,68.19
2022-08-17T23:28:47.832Z,67.75
2022-08-17T23:30:48.612Z,67.91
2022-08-17T23:32:53.623Z,68.49
2022-08-17T23:34:52.624Z,68.75
2022-08-17T23:36:53.127Z,68.95
2022-08-17T23:38:53.649Z,68.93
2022-08-17T23:40:51.960Z,69.05
2022-08-17T23:42:50.962Z,69.99
2022-08-17T23:44:49.509Z,69.82
2022-08-17T23:46:47.720Z,69.85
2022-08-17T23:48:47.789Z,69.32
2022-08-17T23:50:46.042Z,69.54
2022-08-17T23:52:46.759Z,68.73
2022-08-17T23:54:48.591Z,70.12
2022-08-17T23:56:46.968Z,69.24
2022-08-17T23:58:45.924Z,69.20
